RYR6QZ LIPY-EPKK
Flight info
| Callsign | RYR6QZ |
|---|---|
| Flight time | 1h 30m |
| Altitude | 18000 |
| Route | KEGED5F M730 TORPO/N0435F350 DCT KOPRY DCT XOMBA DCT MOCON/N0356F230 M985 MEBAN5G |
| Aircraft | B738/M-SDE3FGILRWY/SB1 |
Departure
| Time | 2026-04-24 12:11 |
|---|---|
| Airport | Marche Airport (LIPY) |
Arrival
| Time | 2026-04-24 13:41 |
|---|---|
| Airport | Kraków John Paul II International Airport (EPKK) |
| Time | Latitude | Longitude | Altitude | Speed | Heading |
|---|---|---|---|---|---|
| 2026-04-24 11:35 | 43.60739 | 13.35439 | 51 ft | 0 kts | 158° |
| 2026-04-24 12:04 | 43.60738 | 13.35440 | 54 ft | 1 kts | 158° |
| 2026-04-24 12:04 | 43.60732 | 13.35435 | 49 ft | 1 kts | 221° |
| 2026-04-24 12:04 | 43.60736 | 13.35426 | 51 ft | 1 kts | 309° |
| 2026-04-24 12:05 | 43.60750 | 13.35405 | 51 ft | 4 kts | 312° |
| 2026-04-24 12:05 | 43.60759 | 13.35361 | 52 ft | 6 kts | 255° |
| 2026-04-24 12:05 | 43.60732 | 13.35312 | 50 ft | 7 kts | 227° |
| 2026-04-24 12:05 | 43.60711 | 13.35246 | 52 ft | 8 kts | 290° |
| 2026-04-24 12:06 | 43.60742 | 13.35197 | 51 ft | 0 kts | 317° |
| 2026-04-24 12:09 | 43.60746 | 13.35192 | 48 ft | 2 kts | 317° |
| 2026-04-24 12:09 | 43.60770 | 13.35161 | 49 ft | 8 kts | 317° |
| 2026-04-24 12:09 | 43.60829 | 13.35135 | 55 ft | 11 kts | 28° |
| 2026-04-24 12:10 | 43.60848 | 13.35159 | 49 ft | 0 kts | 45° |
| 2026-04-24 12:10 | 43.60862 | 13.35178 | 53 ft | 19 kts | 45° |
| 2026-04-24 12:10 | 43.61135 | 13.35549 | 52 ft | 90 kts | 45° |
| 2026-04-24 12:11 | 43.62511 | 13.37455 | 368 ft | 171 kts | 46° |
| 2026-04-24 12:11 | 43.63440 | 13.38672 | 807 ft | 194 kts | 44° |
| 2026-04-24 12:11 | 43.64434 | 13.39997 | 1494 ft | 203 kts | 46° |
| 2026-04-24 12:11 | 43.65464 | 13.41429 | 1944 ft | 217 kts | 46° |
| 2026-04-24 12:12 | 43.66491 | 13.42985 | 2425 ft | 222 kts | 60° |
| 2026-04-24 12:12 | 43.66895 | 13.45021 | 2930 ft | 224 kts | 95° |
| 2026-04-24 12:12 | 43.66465 | 13.47054 | 3488 ft | 222 kts | 114° |
| 2026-04-24 12:12 | 43.66037 | 13.49198 | 3735 ft | 242 kts | 100° |
| 2026-04-24 12:13 | 43.65810 | 13.51567 | 4054 ft | 259 kts | 97° |
| 2026-04-24 12:13 | 43.65598 | 13.54118 | 4506 ft | 272 kts | 96° |
| 2026-04-24 12:13 | 43.65377 | 13.56725 | 5265 ft | 273 kts | 96° |
| 2026-04-24 12:13 | 43.65143 | 13.59335 | 6039 ft | 274 kts | 96° |
| 2026-04-24 12:14 | 43.64899 | 13.61951 | 6786 ft | 276 kts | 95° |
| 2026-04-24 12:14 | 43.64645 | 13.64587 | 7518 ft | 278 kts | 96° |
| 2026-04-24 12:14 | 43.64384 | 13.67240 | 8287 ft | 280 kts | 95° |
| 2026-04-24 12:14 | 43.64119 | 13.69884 | 9037 ft | 283 kts | 95° |
| 2026-04-24 12:15 | 43.63846 | 13.72580 | 9846 ft | 285 kts | 95° |
| 2026-04-24 12:15 | 43.63567 | 13.75308 | 10514 ft | 292 kts | 95° |
| 2026-04-24 12:15 | 43.63272 | 13.78199 | 10697 ft | 316 kts | 96° |
| 2026-04-24 12:15 | 43.62953 | 13.81297 | 10973 ft | 335 kts | 96° |
| 2026-04-24 12:16 | 43.62619 | 13.84511 | 11572 ft | 341 kts | 96° |
| 2026-04-24 12:16 | 43.62277 | 13.87767 | 12326 ft | 344 kts | 96° |
| 2026-04-24 12:16 | 43.61931 | 13.91047 | 13106 ft | 347 kts | 96° |
| 2026-04-24 12:16 | 43.61582 | 13.94357 | 13870 ft | 351 kts | 96° |
| 2026-04-24 12:17 | 43.61228 | 13.97702 | 14570 ft | 354 kts | 96° |
| 2026-04-24 12:17 | 43.60870 | 14.01078 | 15332 ft | 356 kts | 96° |
| 2026-04-24 12:17 | 43.60510 | 14.04463 | 16103 ft | 358 kts | 96° |
| 2026-04-24 12:17 | 43.60147 | 14.07874 | 16840 ft | 361 kts | 96° |
| 2026-04-24 12:18 | 43.59779 | 14.11316 | 17567 ft | 364 kts | 96° |
| 2026-04-24 12:18 | 43.59408 | 14.14783 | 18296 ft | 367 kts | 96° |
| 2026-04-24 12:18 | 43.59032 | 14.18281 | 18928 ft | 370 kts | 96° |
| 2026-04-24 12:18 | 43.58652 | 14.21806 | 19545 ft | 373 kts | 96° |
| 2026-04-24 12:19 | 43.58269 | 14.25354 | 20162 ft | 375 kts | 96° |
| 2026-04-24 12:19 | 43.57882 | 14.28928 | 20781 ft | 378 kts | 96° |
| 2026-04-24 12:19 | 43.57491 | 14.32528 | 21381 ft | 381 kts | 96° |
| 2026-04-24 12:19 | 43.57124 | 14.36158 | 21966 ft | 383 kts | 91° |
| 2026-04-24 12:20 | 43.57385 | 14.39792 | 22521 ft | 383 kts | 72° |
| 2026-04-24 12:20 | 43.58478 | 14.43125 | 23130 ft | 383 kts | 57° |
| 2026-04-24 12:20 | 43.60198 | 14.45934 | 23683 ft | 388 kts | 41° |
| 2026-04-24 12:20 | 43.62398 | 14.48123 | 24147 ft | 391 kts | 35° |
| 2026-04-24 12:21 | 43.64686 | 14.50181 | 24592 ft | 394 kts | 34° |
| 2026-04-24 12:21 | 43.67014 | 14.52221 | 25036 ft | 397 kts | 34° |
| 2026-04-24 12:21 | 43.69353 | 14.54267 | 25485 ft | 400 kts | 34° |
| 2026-04-24 12:21 | 43.71706 | 14.56339 | 25922 ft | 402 kts | 34° |
| 2026-04-24 12:22 | 43.74068 | 14.58435 | 26339 ft | 405 kts | 34° |
| 2026-04-24 12:22 | 43.76438 | 14.60555 | 26760 ft | 407 kts | 35° |
| 2026-04-24 12:22 | 43.78818 | 14.62696 | 27169 ft | 409 kts | 35° |
| 2026-04-24 12:22 | 43.81211 | 14.64856 | 27581 ft | 412 kts | 35° |
| 2026-04-24 12:23 | 43.83619 | 14.67035 | 27971 ft | 414 kts | 35° |
| 2026-04-24 12:23 | 43.86037 | 14.69227 | 28366 ft | 416 kts | 35° |
| 2026-04-24 12:23 | 43.88466 | 14.71432 | 28744 ft | 419 kts | 35° |
| 2026-04-24 12:23 | 43.90911 | 14.73654 | 29124 ft | 421 kts | 35° |
| 2026-04-24 12:24 | 43.93359 | 14.75880 | 29623 ft | 420 kts | 35° |
| 2026-04-24 12:24 | 43.95790 | 14.78092 | 30217 ft | 417 kts | 35° |
| 2026-04-24 12:24 | 43.98207 | 14.80294 | 30692 ft | 415 kts | 35° |
| 2026-04-24 12:24 | 44.00615 | 14.82489 | 31100 ft | 414 kts | 35° |
| 2026-04-24 12:25 | 44.03016 | 14.84681 | 31500 ft | 413 kts | 35° |
| 2026-04-24 12:25 | 44.05412 | 14.86871 | 31935 ft | 411 kts | 35° |
| 2026-04-24 12:25 | 44.07796 | 14.89052 | 32373 ft | 409 kts | 35° |
| 2026-04-24 12:25 | 44.10168 | 14.91224 | 32783 ft | 408 kts | 35° |
| 2026-04-24 12:26 | 44.12536 | 14.93393 | 33204 ft | 406 kts | 35° |
| 2026-04-24 12:26 | 44.14893 | 14.95556 | 33625 ft | 405 kts | 35° |
| 2026-04-24 12:26 | 44.17239 | 14.97711 | 34030 ft | 403 kts | 35° |
| 2026-04-24 12:26 | 44.19575 | 14.99859 | 34381 ft | 402 kts | 35° |
| 2026-04-24 12:27 | 44.21908 | 15.02005 | 34699 ft | 401 kts | 35° |
| 2026-04-24 12:27 | 44.24232 | 15.04145 | 35019 ft | 400 kts | 35° |
| 2026-04-24 12:27 | 44.26563 | 15.06295 | 35083 ft | 404 kts | 35° |
| 2026-04-24 12:28 | 44.31257 | 15.10630 | 35099 ft | 404 kts | 35° |
| 2026-04-24 12:28 | 44.35899 | 15.14922 | 35092 ft | 397 kts | 35° |
| 2026-04-24 12:29 | 44.40497 | 15.19183 | 35103 ft | 396 kts | 35° |
| 2026-04-24 12:29 | 44.44313 | 15.22727 | 35097 ft | 396 kts | 35° |
| 2026-04-24 12:30 | 44.48903 | 15.26996 | 35096 ft | 397 kts | 35° |
| 2026-04-24 12:30 | 44.53499 | 15.31279 | 35088 ft | 397 kts | 35° |
| 2026-04-24 12:31 | 44.58093 | 15.35569 | 35088 ft | 397 kts | 35° |
| 2026-04-24 12:31 | 44.62689 | 15.39868 | 35084 ft | 397 kts | 35° |
| 2026-04-24 12:32 | 44.67250 | 15.44142 | 35082 ft | 396 kts | 35° |
| 2026-04-24 12:32 | 44.71832 | 15.48445 | 35079 ft | 396 kts | 35° |
| 2026-04-24 12:33 | 44.76412 | 15.52755 | 35079 ft | 396 kts | 35° |
| 2026-04-24 12:33 | 44.80986 | 15.57067 | 35082 ft | 395 kts | 35° |
| 2026-04-24 12:34 | 44.85552 | 15.61381 | 35075 ft | 395 kts | 35° |
| 2026-04-24 12:34 | 44.90110 | 15.65694 | 35085 ft | 395 kts | 35° |
| 2026-04-24 12:35 | 44.94669 | 15.70017 | 35081 ft | 394 kts | 35° |
| 2026-04-24 12:35 | 44.99218 | 15.74339 | 35082 ft | 394 kts | 35° |
| 2026-04-24 12:36 | 45.03766 | 15.78668 | 35084 ft | 394 kts | 35° |
| 2026-04-24 12:36 | 45.08306 | 15.82998 | 35078 ft | 394 kts | 35° |
| 2026-04-24 12:37 | 45.12849 | 15.87339 | 35084 ft | 394 kts | 35° |
| 2026-04-24 12:37 | 45.17386 | 15.91684 | 35083 ft | 394 kts | 35° |
| 2026-04-24 12:38 | 45.21922 | 15.96036 | 35080 ft | 394 kts | 35° |
| 2026-04-24 12:38 | 45.26454 | 16.00392 | 35085 ft | 393 kts | 35° |
| 2026-04-24 12:39 | 45.35505 | 16.09118 | 35087 ft | 393 kts | 35° |
| 2026-04-24 12:40 | 45.40027 | 16.13491 | 35086 ft | 393 kts | 35° |
| 2026-04-24 12:40 | 45.44541 | 16.17865 | 35083 ft | 393 kts | 35° |
| 2026-04-24 12:41 | 45.49058 | 16.22250 | 35084 ft | 393 kts | 35° |
| 2026-04-24 12:41 | 45.53569 | 16.26637 | 35084 ft | 392 kts | 35° |
| 2026-04-24 12:42 | 45.58077 | 16.31031 | 35083 ft | 392 kts | 35° |
| 2026-04-24 12:42 | 45.62581 | 16.35429 | 35079 ft | 392 kts | 35° |
| 2026-04-24 12:43 | 45.67078 | 16.39829 | 35081 ft | 392 kts | 35° |
| 2026-04-24 12:43 | 45.71574 | 16.44237 | 35081 ft | 392 kts | 35° |
| 2026-04-24 12:44 | 45.76067 | 16.48651 | 35082 ft | 391 kts | 35° |
| 2026-04-24 12:44 | 45.80525 | 16.53040 | 35079 ft | 391 kts | 35° |
| 2026-04-24 12:45 | 45.85008 | 16.57461 | 35082 ft | 391 kts | 35° |
| 2026-04-24 12:45 | 45.89491 | 16.61892 | 35080 ft | 391 kts | 35° |
| 2026-04-24 12:46 | 45.93974 | 16.66330 | 35077 ft | 391 kts | 35° |
| 2026-04-24 12:46 | 45.98451 | 16.70773 | 35077 ft | 391 kts | 35° |
| 2026-04-24 12:47 | 46.02930 | 16.75226 | 35077 ft | 391 kts | 35° |
| 2026-04-24 12:47 | 46.07406 | 16.79686 | 35074 ft | 391 kts | 35° |
| 2026-04-24 12:48 | 46.11878 | 16.84150 | 35076 ft | 391 kts | 35° |
| 2026-04-24 12:48 | 46.16352 | 16.88626 | 35072 ft | 391 kts | 35° |
| 2026-04-24 12:49 | 46.20821 | 16.93105 | 35073 ft | 391 kts | 35° |
| 2026-04-24 12:49 | 46.25397 | 16.97370 | 35066 ft | 392 kts | 27° |
| 2026-04-24 12:50 | 46.30298 | 17.00814 | 35076 ft | 392 kts | 26° |
| 2026-04-24 12:50 | 46.35215 | 17.04222 | 35074 ft | 392 kts | 26° |
| 2026-04-24 12:51 | 46.40128 | 17.07661 | 35070 ft | 392 kts | 26° |
| 2026-04-24 12:51 | 46.45005 | 17.11101 | 35076 ft | 392 kts | 26° |
| 2026-04-24 12:52 | 46.49911 | 17.14576 | 35073 ft | 393 kts | 26° |
| 2026-04-24 12:52 | 46.54815 | 17.18058 | 35075 ft | 392 kts | 26° |
| 2026-04-24 12:53 | 46.59721 | 17.21549 | 35078 ft | 392 kts | 26° |
| 2026-04-24 12:53 | 46.64620 | 17.25042 | 35076 ft | 392 kts | 26° |
| 2026-04-24 12:54 | 46.69517 | 17.28541 | 35075 ft | 392 kts | 26° |
| 2026-04-24 12:54 | 46.74412 | 17.32045 | 35071 ft | 392 kts | 26° |
| 2026-04-24 12:55 | 46.79302 | 17.35552 | 35074 ft | 391 kts | 26° |
| 2026-04-24 12:55 | 46.84190 | 17.39065 | 35067 ft | 392 kts | 26° |
| 2026-04-24 12:56 | 46.89076 | 17.42584 | 35066 ft | 391 kts | 26° |
| 2026-04-24 12:56 | 46.93957 | 17.46107 | 35062 ft | 391 kts | 26° |
| 2026-04-24 12:57 | 46.98833 | 17.49633 | 35057 ft | 391 kts | 26° |
| 2026-04-24 12:57 | 47.03709 | 17.53167 | 35057 ft | 391 kts | 26° |
| 2026-04-24 12:58 | 47.08579 | 17.56703 | 35053 ft | 390 kts | 26° |
| 2026-04-24 12:58 | 47.13446 | 17.60244 | 35051 ft | 390 kts | 26° |
| 2026-04-24 12:59 | 47.18309 | 17.63790 | 35051 ft | 390 kts | 26° |
| 2026-04-24 12:59 | 47.23170 | 17.67342 | 35050 ft | 390 kts | 26° |
| 2026-04-24 13:00 | 47.28024 | 17.70896 | 35051 ft | 390 kts | 26° |
| 2026-04-24 13:00 | 47.32876 | 17.74455 | 35055 ft | 389 kts | 26° |
| 2026-04-24 13:01 | 47.37698 | 17.78000 | 35043 ft | 390 kts | 26° |
| 2026-04-24 13:01 | 47.42549 | 17.81574 | 35049 ft | 390 kts | 26° |
| 2026-04-24 13:02 | 47.47429 | 17.85177 | 35044 ft | 389 kts | 26° |
| 2026-04-24 13:02 | 47.52238 | 17.88734 | 35051 ft | 389 kts | 26° |
| 2026-04-24 13:03 | 47.57079 | 17.92323 | 35059 ft | 389 kts | 25° |
| 2026-04-24 13:03 | 47.61919 | 17.95918 | 35048 ft | 389 kts | 25° |
| 2026-04-24 13:04 | 47.66762 | 17.99524 | 35048 ft | 389 kts | 25° |
| 2026-04-24 13:04 | 47.71598 | 18.03132 | 35045 ft | 389 kts | 25° |
| 2026-04-24 13:05 | 47.76436 | 18.06756 | 35047 ft | 389 kts | 26° |
| 2026-04-24 13:05 | 47.81221 | 18.10549 | 35045 ft | 390 kts | 27° |
| 2026-04-24 13:06 | 47.85979 | 18.14402 | 35035 ft | 390 kts | 27° |
| 2026-04-24 13:06 | 47.90744 | 18.18256 | 35028 ft | 390 kts | 27° |
| 2026-04-24 13:07 | 47.95511 | 18.22106 | 35028 ft | 390 kts | 27° |
| 2026-04-24 13:07 | 48.00280 | 18.25959 | 35024 ft | 390 kts | 26° |
| 2026-04-24 13:08 | 48.05049 | 18.29819 | 35023 ft | 390 kts | 26° |
| 2026-04-24 13:08 | 48.09810 | 18.33680 | 35025 ft | 390 kts | 26° |
| 2026-04-24 13:09 | 48.16959 | 18.39493 | 35022 ft | 390 kts | 26° |
| 2026-04-24 13:09 | 48.21718 | 18.43374 | 35019 ft | 389 kts | 26° |
| 2026-04-24 13:10 | 48.26475 | 18.47261 | 35016 ft | 389 kts | 26° |
| 2026-04-24 13:10 | 48.31198 | 18.51129 | 35020 ft | 389 kts | 26° |
| 2026-04-24 13:11 | 48.35981 | 18.55054 | 35009 ft | 389 kts | 26° |
| 2026-04-24 13:11 | 48.40658 | 18.58903 | 35011 ft | 378 kts | 26° |
| 2026-04-24 13:12 | 48.45253 | 18.62690 | 35018 ft | 376 kts | 26° |
| 2026-04-24 13:12 | 48.47526 | 18.64565 | 34745 ft | 377 kts | 26° |
| 2026-04-24 13:12 | 48.49801 | 18.66445 | 34483 ft | 371 kts | 26° |
| 2026-04-24 13:13 | 48.52054 | 18.68309 | 34097 ft | 368 kts | 26° |
| 2026-04-24 13:13 | 48.54317 | 18.70184 | 33694 ft | 365 kts | 26° |
| 2026-04-24 13:13 | 48.56502 | 18.71995 | 33292 ft | 362 kts | 26° |
| 2026-04-24 13:13 | 48.58706 | 18.73823 | 32912 ft | 359 kts | 26° |
| 2026-04-24 13:14 | 48.60886 | 18.75634 | 32538 ft | 356 kts | 26° |
| 2026-04-24 13:14 | 48.63050 | 18.77432 | 32169 ft | 353 kts | 26° |
| 2026-04-24 13:14 | 48.65196 | 18.79218 | 31808 ft | 351 kts | 26° |
| 2026-04-24 13:14 | 48.67330 | 18.80995 | 31449 ft | 349 kts | 26° |
| 2026-04-24 13:15 | 48.69448 | 18.82760 | 31086 ft | 346 kts | 26° |
| 2026-04-24 13:15 | 48.71552 | 18.84516 | 30748 ft | 344 kts | 26° |
| 2026-04-24 13:15 | 48.73643 | 18.86262 | 30390 ft | 343 kts | 26° |
| 2026-04-24 13:15 | 48.75729 | 18.88007 | 30035 ft | 342 kts | 26° |
| 2026-04-24 13:16 | 48.77803 | 18.89742 | 29620 ft | 340 kts | 26° |
| 2026-04-24 13:16 | 48.79864 | 18.91469 | 29242 ft | 337 kts | 26° |
| 2026-04-24 13:16 | 48.81220 | 18.92606 | 28989 ft | 335 kts | 26° |
| 2026-04-24 13:16 | 48.83255 | 18.94313 | 28633 ft | 333 kts | 26° |
| 2026-04-24 13:17 | 48.85277 | 18.96012 | 28253 ft | 331 kts | 25° |
| 2026-04-24 13:17 | 48.87280 | 18.97696 | 27891 ft | 328 kts | 25° |
| 2026-04-24 13:17 | 48.89274 | 18.99374 | 27553 ft | 326 kts | 25° |
| 2026-04-24 13:17 | 48.91255 | 19.01043 | 27189 ft | 325 kts | 25° |
| 2026-04-24 13:18 | 48.93227 | 19.02704 | 26841 ft | 323 kts | 25° |
| 2026-04-24 13:18 | 48.95187 | 19.04357 | 26499 ft | 322 kts | 25° |
| 2026-04-24 13:18 | 48.97140 | 19.06007 | 26148 ft | 320 kts | 25° |
| 2026-04-24 13:18 | 48.99086 | 19.07652 | 25797 ft | 319 kts | 25° |
| 2026-04-24 13:19 | 49.01021 | 19.09287 | 25460 ft | 318 kts | 25° |
| 2026-04-24 13:19 | 49.02955 | 19.10925 | 25113 ft | 317 kts | 25° |
| 2026-04-24 13:19 | 49.04883 | 19.12559 | 24772 ft | 316 kts | 25° |
| 2026-04-24 13:19 | 49.06803 | 19.14188 | 24426 ft | 316 kts | 25° |
| 2026-04-24 13:20 | 49.08722 | 19.15817 | 24080 ft | 315 kts | 25° |
| 2026-04-24 13:20 | 49.10633 | 19.17441 | 23738 ft | 314 kts | 25° |
| 2026-04-24 13:20 | 49.12546 | 19.19067 | 23325 ft | 315 kts | 25° |
| 2026-04-24 13:20 | 49.14459 | 19.20699 | 22962 ft | 314 kts | 26° |
| 2026-04-24 13:21 | 49.16261 | 19.22614 | 22375 ft | 323 kts | 36° |
| 2026-04-24 13:21 | 49.17924 | 19.24987 | 21895 ft | 327 kts | 39° |
| 2026-04-24 13:21 | 49.19569 | 19.27394 | 21467 ft | 327 kts | 39° |
| 2026-04-24 13:21 | 49.21217 | 19.29779 | 21119 ft | 326 kts | 39° |
| 2026-04-24 13:22 | 49.22866 | 19.32147 | 20766 ft | 324 kts | 39° |
| 2026-04-24 13:22 | 49.24506 | 19.34495 | 20425 ft | 322 kts | 39° |
| 2026-04-24 13:22 | 49.26141 | 19.36833 | 20081 ft | 321 kts | 39° |
| 2026-04-24 13:22 | 49.27770 | 19.39165 | 19730 ft | 320 kts | 39° |
| 2026-04-24 13:23 | 49.29390 | 19.41486 | 19392 ft | 318 kts | 39° |
| 2026-04-24 13:23 | 49.30999 | 19.43794 | 19068 ft | 316 kts | 39° |
| 2026-04-24 13:23 | 49.32602 | 19.46096 | 18739 ft | 315 kts | 39° |
| 2026-04-24 13:23 | 49.34199 | 19.48391 | 18407 ft | 314 kts | 39° |
| 2026-04-24 13:24 | 49.35786 | 19.50675 | 18050 ft | 313 kts | 39° |
| 2026-04-24 13:24 | 49.37349 | 19.52925 | 17696 ft | 311 kts | 39° |
| 2026-04-24 13:24 | 49.38918 | 19.55188 | 17358 ft | 309 kts | 39° |
| 2026-04-24 13:24 | 49.40483 | 19.57445 | 17021 ft | 307 kts | 39° |
| 2026-04-24 13:25 | 49.42034 | 19.59684 | 16694 ft | 305 kts | 40° |
| 2026-04-24 13:25 | 49.43577 | 19.61914 | 16380 ft | 304 kts | 40° |
| 2026-04-24 13:25 | 49.45111 | 19.64132 | 16057 ft | 302 kts | 40° |
| 2026-04-24 13:25 | 49.46608 | 19.66403 | 15675 ft | 303 kts | 43° |
| 2026-04-24 13:26 | 49.48063 | 19.68752 | 15342 ft | 303 kts | 44° |
| 2026-04-24 13:26 | 49.49500 | 19.71108 | 15016 ft | 302 kts | 44° |
| 2026-04-24 13:26 | 49.50934 | 19.73464 | 14687 ft | 301 kts | 44° |
| 2026-04-24 13:26 | 49.52365 | 19.75811 | 14369 ft | 300 kts | 44° |
| 2026-04-24 13:27 | 49.53790 | 19.78143 | 14054 ft | 298 kts | 44° |
| 2026-04-24 13:27 | 49.55211 | 19.80464 | 13735 ft | 297 kts | 44° |
| 2026-04-24 13:27 | 49.56628 | 19.82780 | 13377 ft | 297 kts | 44° |
| 2026-04-24 13:27 | 49.58042 | 19.85088 | 13041 ft | 295 kts | 44° |
| 2026-04-24 13:28 | 49.59447 | 19.87386 | 12714 ft | 294 kts | 44° |
| 2026-04-24 13:28 | 49.60844 | 19.89672 | 12396 ft | 292 kts | 44° |
| 2026-04-24 13:28 | 49.62235 | 19.91948 | 12079 ft | 291 kts | 43° |
| 2026-04-24 13:28 | 49.63616 | 19.94211 | 11763 ft | 289 kts | 43° |
| 2026-04-24 13:29 | 49.64992 | 19.96467 | 11459 ft | 288 kts | 43° |
| 2026-04-24 13:29 | 49.66360 | 19.98711 | 11143 ft | 287 kts | 43° |
| 2026-04-24 13:29 | 49.67726 | 20.00952 | 10832 ft | 286 kts | 43° |
| 2026-04-24 13:29 | 49.69085 | 20.03187 | 10525 ft | 285 kts | 43° |
| 2026-04-24 13:30 | 49.70436 | 20.05410 | 10231 ft | 283 kts | 43° |
| 2026-04-24 13:30 | 49.71776 | 20.07617 | 10064 ft | 278 kts | 43° |
| 2026-04-24 13:30 | 49.73093 | 20.09789 | 9781 ft | 277 kts | 43° |
| 2026-04-24 13:30 | 49.74410 | 20.11961 | 9469 ft | 276 kts | 43° |
| 2026-04-24 13:31 | 49.75717 | 20.14122 | 9180 ft | 274 kts | 43° |
| 2026-04-24 13:31 | 49.77013 | 20.16243 | 8913 ft | 268 kts | 40° |
| 2026-04-24 13:31 | 49.78577 | 20.17662 | 8635 ft | 258 kts | 12° |
| 2026-04-24 13:31 | 49.80322 | 20.17928 | 8365 ft | 251 kts | 352° |
| 2026-04-24 13:32 | 49.82040 | 20.17528 | 8100 ft | 249 kts | 348° |
| 2026-04-24 13:32 | 49.83743 | 20.17045 | 7814 ft | 248 kts | 347° |
| 2026-04-24 13:32 | 49.85436 | 20.16554 | 7545 ft | 247 kts | 347° |
| 2026-04-24 13:32 | 49.87119 | 20.16069 | 7284 ft | 246 kts | 347° |
| 2026-04-24 13:33 | 49.88799 | 20.15592 | 7025 ft | 245 kts | 347° |
| 2026-04-24 13:33 | 49.90478 | 20.15119 | 6746 ft | 245 kts | 347° |
| 2026-04-24 13:33 | 49.92155 | 20.14648 | 6465 ft | 245 kts | 347° |
| 2026-04-24 13:33 | 49.93838 | 20.14177 | 6168 ft | 245 kts | 347° |
| 2026-04-24 13:34 | 49.95493 | 20.13715 | 5886 ft | 244 kts | 347° |
| 2026-04-24 13:34 | 49.97163 | 20.13250 | 5622 ft | 243 kts | 347° |
| 2026-04-24 13:34 | 49.98830 | 20.12787 | 5355 ft | 244 kts | 347° |
| 2026-04-24 13:34 | 50.00479 | 20.12328 | 5240 ft | 237 kts | 347° |
| 2026-04-24 13:35 | 50.02077 | 20.11885 | 5114 ft | 230 kts | 347° |
| 2026-04-24 13:35 | 50.03624 | 20.11454 | 5012 ft | 222 kts | 347° |
| 2026-04-24 13:35 | 50.05116 | 20.11040 | 4931 ft | 214 kts | 347° |
| 2026-04-24 13:35 | 50.06566 | 20.10638 | 4867 ft | 208 kts | 346° |
| 2026-04-24 13:36 | 50.07988 | 20.10242 | 4691 ft | 209 kts | 347° |
| 2026-04-24 13:36 | 50.09424 | 20.09840 | 4452 ft | 210 kts | 347° |
| 2026-04-24 13:36 | 50.10786 | 20.09149 | 4205 ft | 204 kts | 321° |
| 2026-04-24 13:36 | 50.11556 | 20.07401 | 4011 ft | 199 kts | 282° |
| 2026-04-24 13:37 | 50.11474 | 20.05285 | 3825 ft | 194 kts | 262° |
| 2026-04-24 13:37 | 50.11227 | 20.03241 | 3596 ft | 190 kts | 261° |
| 2026-04-24 13:37 | 50.10961 | 20.01262 | 3393 ft | 183 kts | 261° |
| 2026-04-24 13:37 | 50.10691 | 19.99333 | 3224 ft | 182 kts | 261° |
| 2026-04-24 13:38 | 50.10423 | 19.97433 | 3081 ft | 180 kts | 260° |
| 2026-04-24 13:38 | 50.10158 | 19.95543 | 2841 ft | 177 kts | 260° |
| 2026-04-24 13:38 | 50.09895 | 19.93689 | 2604 ft | 174 kts | 261° |
| 2026-04-24 13:38 | 50.09643 | 19.91894 | 2398 ft | 164 kts | 261° |
| 2026-04-24 13:39 | 50.09405 | 19.90187 | 2163 ft | 159 kts | 261° |
| 2026-04-24 13:39 | 50.09178 | 19.88559 | 1970 ft | 147 kts | 260° |
| 2026-04-24 13:39 | 50.08965 | 19.87040 | 1748 ft | 142 kts | 259° |
| 2026-04-24 13:39 | 50.08756 | 19.85549 | 1554 ft | 139 kts | 261° |
| 2026-04-24 13:40 | 50.08547 | 19.84046 | 1343 ft | 143 kts | 258° |
| 2026-04-24 13:40 | 50.08337 | 19.82584 | 1170 ft | 138 kts | 258° |
| 2026-04-24 13:40 | 50.08132 | 19.81104 | 961 ft | 139 kts | 260° |
| 2026-04-24 13:40 | 50.07932 | 19.79652 | 805 ft | 133 kts | 260° |
| 2026-04-24 13:41 | 50.07769 | 19.78443 | 801 ft | 93 kts | 258° |
| 2026-04-24 13:41 | 50.07662 | 19.77688 | 798 ft | 50 kts | 257° |
| 2026-04-24 13:41 | 50.07603 | 19.77270 | 800 ft | 36 kts | 258° |
| 2026-04-24 13:41 | 50.07558 | 19.76940 | 801 ft | 23 kts | 257° |
| 2026-04-24 13:42 | 50.07487 | 19.76844 | 801 ft | 15 kts | 173° |
| 2026-04-24 13:42 | 50.07388 | 19.76877 | 799 ft | 14 kts | 169° |
| 2026-04-24 13:42 | 50.07311 | 19.76949 | 799 ft | 14 kts | 98° |
| 2026-04-24 13:42 | 50.07325 | 19.77094 | 799 ft | 13 kts | 77° |
| 2026-04-24 13:43 | 50.07345 | 19.77231 | 799 ft | 13 kts | 77° |
| 2026-04-24 13:43 | 50.07364 | 19.77365 | 799 ft | 13 kts | 77° |
| 2026-04-24 13:43 | 50.07382 | 19.77496 | 799 ft | 12 kts | 78° |
| 2026-04-24 13:43 | 50.07400 | 19.77624 | 799 ft | 12 kts | 78° |
| 2026-04-24 13:44 | 50.07417 | 19.77746 | 799 ft | 12 kts | 78° |
| 2026-04-24 13:44 | 50.07433 | 19.77867 | 799 ft | 11 kts | 78° |
| 2026-04-24 13:44 | 50.07450 | 19.77985 | 799 ft | 11 kts | 78° |
| 2026-04-24 13:44 | 50.07466 | 19.78099 | 799 ft | 11 kts | 78° |
| 2026-04-24 13:45 | 50.07481 | 19.78210 | 799 ft | 10 kts | 78° |
| 2026-04-24 13:45 | 50.07496 | 19.78318 | 799 ft | 10 kts | 78° |
| 2026-04-24 13:45 | 50.07510 | 19.78422 | 799 ft | 10 kts | 78° |
| 2026-04-24 13:45 | 50.07525 | 19.78524 | 799 ft | 10 kts | 78° |
| 2026-04-24 13:46 | 50.07538 | 19.78623 | 799 ft | 9 kts | 78° |
| 2026-04-24 13:46 | 50.07552 | 19.78720 | 799 ft | 9 kts | 78° |
| 2026-04-24 13:46 | 50.07565 | 19.78815 | 799 ft | 9 kts | 78° |
| 2026-04-24 13:46 | 50.07579 | 19.78918 | 799 ft | 10 kts | 78° |
| 2026-04-24 13:47 | 50.07596 | 19.79037 | 799 ft | 12 kts | 78° |
| 2026-04-24 13:47 | 50.07616 | 19.79179 | 799 ft | 15 kts | 78° |
| 2026-04-24 13:47 | 50.07640 | 19.79352 | 799 ft | 18 kts | 77° |
| 2026-04-24 13:47 | 50.07668 | 19.79551 | 799 ft | 20 kts | 78° |
| 2026-04-24 13:48 | 50.07699 | 19.79775 | 799 ft | 22 kts | 77° |
| 2026-04-24 13:48 | 50.07733 | 19.80017 | 799 ft | 23 kts | 78° |
| 2026-04-24 13:48 | 50.07765 | 19.80253 | 799 ft | 18 kts | 78° |
| 2026-04-24 13:48 | 50.07729 | 19.80376 | 799 ft | 15 kts | 166° |
| 2026-04-24 13:49 | 50.07631 | 19.80408 | 799 ft | 14 kts | 168° |
| 2026-04-24 13:49 | 50.07537 | 19.80409 | 799 ft | 13 kts | 196° |
| 2026-04-24 13:49 | 50.07458 | 19.80373 | 799 ft | 10 kts | 187° |
| 2026-04-24 13:49 | 50.07416 | 19.80443 | 799 ft | 6 kts | 108° |
| 2026-04-24 13:50 | 50.07414 | 19.80454 | 799 ft | 1 kts | 108° |
| 2026-04-24 13:50 | 50.07413 | 19.80460 | 799 ft | 0 kts | 107° |